createdAt,value
2023-02-11T00:00:05.712Z,102248.03
2023-02-11T00:02:33.939Z,102243.66
2023-02-11T00:05:03.526Z,102230.72
2023-02-11T00:07:31.753Z,102240.13
2023-02-11T00:09:59.684Z,102255.63
2023-02-11T00:12:27.675Z,102245.56
2023-02-11T00:14:55.921Z,102247.97
2023-02-11T00:17:23.876Z,102243.88
2023-02-11T00:19:52.016Z,102261.88
2023-02-11T00:22:21.379Z,102259.28
2023-02-11T00:24:49.439Z,102258.34
2023-02-11T00:27:17.433Z,102254.19
2023-02-11T00:29:45.938Z,102246.50
2023-02-11T00:32:13.765Z,102256.03
2023-02-11T00:34:41.710Z,102240.56
2023-02-11T00:37:09.565Z,102226.78
2023-02-11T00:39:38.953Z,102231.09
2023-02-11T00:42:06.895Z,102219.91
2023-02-11T00:44:34.807Z,102216.47
2023-02-11T00:47:02.930Z,102213.06
2023-02-11T00:49:30.759Z,102213.19
2023-02-11T00:51:58.576Z,102196.78
2023-02-11T00:54:28.427Z,102206.19
2023-02-11T00:56:59.129Z,102215.81
2023-02-11T00:59:27.053Z,102216.78
2023-02-11T01:01:55.040Z,102220.31
2023-02-11T01:04:22.953Z,102211.75
2023-02-11T01:06:53.159Z,102209.22
2023-02-11T01:09:21.858Z,102210.13
2023-02-11T01:11:49.805Z,102207.56
2023-02-11T01:14:19.161Z,102216.19
2023-02-11T01:16:47.132Z,102212.81
2023-02-11T01:19:15.044Z,102210.28
2023-02-11T01:21:46.096Z,102207.75
2023-02-11T01:24:14.047Z,102185.41
2023-02-11T01:26:44.976Z,102198.41
2023-02-11T01:29:12.884Z,102192.44
2023-02-11T01:31:42.216Z,102188.09
2023-02-11T01:34:10.133Z,102188.19
2023-02-11T01:36:38.677Z,102190.75
2023-02-11T01:39:06.644Z,102181.19
2023-02-11T01:41:34.739Z,102179.47
2023-02-11T01:44:24.178Z,102166.75
2023-02-11T01:46:53.708Z,102156.50
2023-02-11T01:49:24.803Z,102159.91
2023-02-11T01:51:56.489Z,102164.16
2023-02-11T01:54:45.232Z,102146.19
2023-02-11T01:57:23.496Z,102142.72
2023-02-11T02:00:02.998Z,102134.88
2023-02-11T02:02:47.597Z,102128.97
2023-02-11T02:05:24.205Z,102120.31
2023-02-11T02:07:58.335Z,102109.06
2023-02-11T02:10:28.422Z,102120.19
2023-02-11T02:12:56.609Z,102102.09
2023-02-11T02:15:27.484Z,102109.78
2023-02-11T02:18:03.234Z,102100.34
2023-02-11T02:20:55.151Z,102113.22
2023-02-11T02:23:45.831Z,102111.50
2023-02-11T02:26:29.422Z,102120.09
2023-02-11T02:29:41.321Z,102108.94
2023-02-11T02:32:33.096Z,102111.41
2023-02-11T02:35:06.981Z,102126.78
2023-02-11T02:37:38.913Z,102106.97
2023-02-11T02:40:11.404Z,102103.44
2023-02-11T02:42:39.942Z,102100.03
2023-02-11T02:45:09.416Z,102106.06
2023-02-11T02:47:38.947Z,102107.59
2023-02-11T02:50:08.110Z,102106.84
2023-02-11T02:52:37.880Z,102096.53
2023-02-11T02:55:15.262Z,102092.28
2023-02-11T02:57:55.623Z,102101.78
2023-02-11T03:00:26.891Z,102069.00
2023-02-11T03:03:07.337Z,102081.09
2023-02-11T03:05:42.680Z,102078.47
2023-02-11T03:08:13.952Z,102072.47
2023-02-11T03:10:43.984Z,102063.13
2023-02-11T03:13:12.229Z,102057.03
2023-02-11T03:15:43.118Z,102053.53
2023-02-11T03:18:15.343Z,102039.78
2023-02-11T03:20:45.852Z,102031.19
2023-02-11T03:23:16.431Z,102015.69
2023-02-11T03:25:50.459Z,101995.13
2023-02-11T03:28:26.108Z,102010.63
2023-02-11T03:30:57.384Z,102007.16
2023-02-11T03:33:29.493Z,102008.06
2023-02-11T03:35:59.627Z,101987.41
2023-02-11T03:38:31.082Z,101992.69
2023-02-11T03:40:59.200Z,101994.47
2023-02-11T03:43:30.200Z,102002.22
2023-02-11T03:45:58.454Z,102014.25
2023-02-11T03:48:31.334Z,102007.38
2023-02-11T03:51:01.174Z,102005.72
2023-02-11T03:53:29.105Z,102025.50
2023-02-11T03:55:58.320Z,102018.69
2023-02-11T03:58:26.143Z,102012.66
2023-02-11T04:00:54.031Z,102021.31
2023-02-11T04:03:21.939Z,102041.97
2023-02-11T04:05:51.403Z,102021.31
2023-02-11T04:08:19.514Z,102029.06
2023-02-11T04:10:47.403Z,102032.53
2023-02-11T04:13:15.390Z,102029.03
2023-02-11T04:15:43.309Z,101999.84
2023-02-11T04:18:11.203Z,101999.88
2023-02-11T04:20:39.038Z,102017.94
2023-02-11T04:23:08.281Z,101995.56
2023-02-11T04:25:36.092Z,101997.34
2023-02-11T04:28:03.984Z,101990.34
2023-02-11T04:30:31.823Z,102004.09
2023-02-11T04:32:59.932Z,101992.97
2023-02-11T04:35:27.747Z,101982.59
2023-02-11T04:37:55.632Z,101986.97
2023-02-11T04:40:24.960Z,101984.41
2023-02-11T04:42:52.843Z,101980.06
2023-02-11T04:45:20.699Z,101974.94
2023-02-11T04:47:48.544Z,101987.91
2023-02-11T04:50:16.652Z,102012.81
2023-02-11T04:52:44.537Z,101985.31
2023-02-11T04:55:12.413Z,101968.19
2023-02-11T04:57:41.634Z,101961.41
2023-02-11T05:00:11.055Z,101947.63
2023-02-11T05:02:38.981Z,101949.28
2023-02-11T05:05:07.079Z,101938.16
2023-02-11T05:07:35.017Z,101944.19
2023-02-11T05:10:02.903Z,101945.09
2023-02-11T05:12:30.754Z,101944.25
2023-02-11T05:14:59.967Z,101944.34
2023-02-11T05:17:27.833Z,101946.88
2023-02-11T05:19:55.694Z,101935.78
2023-02-11T05:22:23.588Z,101938.47
2023-02-11T05:24:51.444Z,101944.56
2023-02-11T05:27:19.285Z,101944.56
2023-02-11T05:29:47.227Z,101936.84
2023-02-11T05:32:16.455Z,101934.25
2023-02-11T05:34:44.263Z,101938.59
2023-02-11T05:37:12.219Z,101938.59
2023-02-11T05:39:40.093Z,101931.72
2023-02-11T05:42:08.242Z,101915.41
2023-02-11T05:44:36.150Z,101908.56
2023-02-11T05:47:04.277Z,101906.84
2023-02-11T05:49:33.491Z,101918.88
2023-02-11T05:52:01.394Z,101913.75
2023-02-11T05:54:29.224Z,101903.41
2023-02-11T05:56:57.080Z,101906.03
2023-02-11T05:59:24.886Z,101906.06
2023-02-11T06:01:52.830Z,101925.06
2023-02-11T06:04:20.748Z,101944.03
2023-02-11T06:06:49.972Z,101930.13
2023-02-11T06:09:17.841Z,101949.97
2023-02-11T06:11:45.659Z,101936.28
2023-02-11T06:14:14.397Z,101963.81
2023-02-11T06:16:42.259Z,101967.38
2023-02-11T06:19:10.153Z,101981.13
2023-02-11T06:21:43.833Z,101964.78
2023-02-11T06:24:13.816Z,101963.09
2023-02-11T06:26:41.614Z,101942.38
2023-02-11T06:29:09.546Z,101942.38
2023-02-11T06:31:38.724Z,101953.50
2023-02-11T06:34:06.866Z,101936.31
2023-02-11T06:36:34.789Z,101944.13
2023-02-11T06:39:02.617Z,101956.06
2023-02-11T06:41:31.966Z,101960.44
2023-02-11T06:43:59.899Z,101961.25
2023-02-11T06:46:27.807Z,101958.75
2023-02-11T06:48:55.758Z,101965.59
2023-02-11T06:51:24.068Z,101963.03
2023-02-11T06:53:51.994Z,101995.75
2023-02-11T06:56:21.929Z,101988.94
2023-02-11T06:58:53.460Z,101989.81
2023-02-11T07:01:21.507Z,101994.94
2023-02-11T07:03:49.486Z,102001.03
2023-02-11T07:06:18.922Z,102001.06
2023-02-11T07:08:47.506Z,101986.44
2023-02-11T07:11:17.042Z,101984.72
2023-02-11T07:13:45.090Z,101961.50
2023-02-11T07:16:16.169Z,101972.69
2023-02-11T07:18:44.604Z,101983.84
2023-02-11T07:21:13.847Z,101983.88
2023-02-11T07:23:42.063Z,102002.81
2023-02-11T07:26:11.187Z,101994.25
2023-02-11T07:28:40.558Z,101989.06
2023-02-11T07:31:09.113Z,101979.59
2023-02-11T07:33:38.758Z,101995.13
2023-02-11T07:36:08.520Z,102000.31
2023-02-11T07:38:36.948Z,101996.06
2023-02-11T07:41:06.357Z,101994.44
2023-02-11T07:43:34.852Z,102000.50
2023-02-11T07:46:04.696Z,102003.91
2023-02-11T07:48:32.634Z,102023.78
2023-02-11T07:51:08.460Z,102033.28
2023-02-11T07:53:36.367Z,102035.84
2023-02-11T07:56:04.809Z,102019.50
2023-02-11T07:58:32.692Z,102019.50
2023-02-11T08:01:03.389Z,102016.97
2023-02-11T08:03:31.502Z,102009.25
2023-02-11T08:05:59.787Z,102013.56
2023-02-11T08:08:29.107Z,102054.06
2023-02-11T08:10:57.025Z,102060.09
2023-02-11T08:13:27.000Z,102043.81
2023-02-11T08:15:54.927Z,102050.66
2023-02-11T08:18:22.817Z,102042.84
2023-02-11T08:20:50.957Z,102052.47
2023-02-11T08:23:19.126Z,102050.75
2023-02-11T08:25:48.668Z,102045.56
2023-02-11T08:30:15.585Z,102052.56
2023-02-11T08:32:43.527Z,102053.44
2023-02-11T08:35:12.535Z,102041.41
2023-02-11T08:37:40.726Z,102049.19
2023-02-11T08:40:47.132Z,102034.63
2023-02-11T08:43:15.475Z,102043.25
2023-02-11T08:45:43.465Z,102055.34
2023-02-11T08:48:11.381Z,102060.66
2023-02-11T08:50:40.205Z,102062.44
2023-02-11T08:53:08.280Z,102046.88
2023-02-11T08:55:36.173Z,102069.41
2023-02-11T08:58:05.555Z,102085.75
2023-02-11T09:00:33.472Z,102091.88
2023-02-11T09:03:02.161Z,102119.50
2023-02-11T09:05:29.971Z,102100.44
2023-02-11T09:07:57.840Z,102103.09
2023-02-11T09:10:25.709Z,102106.53
2023-02-11T09:12:53.595Z,102106.53
2023-02-11T09:15:22.999Z,102098.84
2023-02-11T09:17:50.956Z,102087.59
2023-02-11T09:20:19.494Z,102070.28
2023-02-11T09:22:47.507Z,102074.66
2023-02-11T09:25:15.640Z,102071.22
2023-02-11T09:27:43.598Z,102079.91
2023-02-11T09:30:12.754Z,102091.09
2023-02-11T09:32:42.066Z,102080.75
2023-02-11T09:35:10.073Z,102101.44
2023-02-11T09:37:38.148Z,102073.91
2023-02-11T09:40:07.647Z,102059.28
2023-02-11T09:42:46.881Z,102066.13
2023-02-11T09:45:19.555Z,102085.09
2023-02-11T09:47:51.780Z,102079.91
2023-02-11T09:50:24.296Z,102079.13
2023-02-11T09:52:59.952Z,102061.81
2023-02-11T09:55:30.227Z,102064.41
2023-02-11T09:57:58.960Z,102067.91
2023-02-11T10:00:30.522Z,102060.97
2023-02-11T10:03:36.871Z,102073.09
2023-02-11T10:06:16.531Z,102082.59
2023-02-11T10:08:50.796Z,102088.56
2023-02-11T10:11:31.718Z,102078.22
2023-02-11T10:14:11.650Z,102079.91
2023-02-11T10:16:49.903Z,102107.53
2023-02-11T10:19:32.267Z,102109.25
2023-02-11T10:22:08.177Z,102141.97
2023-02-11T10:24:36.624Z,102144.59
2023-02-11T10:27:09.961Z,102162.78
2023-02-11T10:29:41.269Z,102173.13
2023-02-11T10:32:19.993Z,102151.56
2023-02-11T10:34:49.321Z,102145.59
2023-02-11T10:37:17.124Z,102133.56
2023-02-11T10:39:45.077Z,102136.28
2023-02-11T10:42:13.861Z,102150.09
2023-02-11T10:44:45.253Z,102140.66
2023-02-11T10:47:17.064Z,102156.19
2023-02-11T10:49:47.022Z,102144.94
2023-02-11T10:52:24.584Z,102158.75
2023-02-11T10:55:01.344Z,102176.97
2023-02-11T10:57:32.932Z,102174.38
2023-02-11T11:00:03.284Z,102167.47
2023-02-11T11:02:34.511Z,102176.16
2023-02-11T11:05:05.614Z,102173.56
2023-02-11T11:07:35.904Z,102172.75
2023-02-11T11:10:08.502Z,102185.66
2023-02-11T11:12:42.184Z,102179.63
2023-02-11T11:15:22.571Z,102179.69
2023-02-11T11:17:50.837Z,102190.88
2023-02-11T11:20:25.208Z,102194.38
2023-02-11T11:23:08.801Z,102192.63
2023-02-11T11:25:39.342Z,102188.31
2023-02-11T11:28:07.486Z,102194.28
2023-02-11T11:30:42.513Z,102200.34
2023-02-11T11:33:20.457Z,102213.31
2023-02-11T11:35:58.781Z,102196.03
2023-02-11T11:38:28.595Z,102202.91
2023-02-11T11:41:27.007Z,102199.44
2023-02-11T11:44:09.460Z,102202.91
2023-02-11T11:46:40.322Z,102198.63
2023-02-11T11:49:23.084Z,102184.84
2023-02-11T11:51:56.415Z,102213.34
2023-02-11T11:54:26.220Z,102217.69
2023-02-11T11:56:59.073Z,102216.03
2023-02-11T11:59:26.979Z,102222.06
2023-02-11T12:02:18.884Z,102256.56
2023-02-11T12:04:59.664Z,102230.66
2023-02-11T12:07:35.798Z,102214.22
2023-02-11T12:10:38.421Z,102218.53
2023-02-11T12:13:18.570Z,102232.31
2023-02-11T12:15:54.616Z,102228.91
2023-02-11T12:18:47.915Z,102221.97
2023-02-11T12:21:26.548Z,102208.22
2023-02-11T12:24:09.216Z,102236.66
2023-02-11T12:26:50.619Z,102230.66
2023-02-11T12:29:29.173Z,102216.75
2023-02-11T12:32:12.237Z,102232.38
2023-02-11T12:34:54.355Z,102244.53
2023-02-11T12:37:33.805Z,102236.66
2023-02-11T12:40:05.556Z,102237.53
2023-02-11T12:43:06.078Z,102229.84
2023-02-11T12:45:49.934Z,102232.41
2023-02-11T12:48:25.545Z,102232.50
2023-02-11T12:50:59.351Z,102232.44
2023-02-11T12:53:38.178Z,102233.19
2023-02-11T12:56:07.708Z,102222.91
2023-02-11T12:58:45.047Z,102236.72
2023-02-11T13:01:20.837Z,102254.97
2023-02-11T13:03:50.320Z,102254.13
2023-02-11T13:06:21.691Z,102260.19
2023-02-11T13:08:51.569Z,102250.69
2023-02-11T13:11:21.611Z,102260.25
2023-02-11T13:13:54.026Z,102247.25
2023-02-11T13:16:32.547Z,102255.94
2023-02-11T13:19:04.881Z,102280.22
2023-02-11T13:21:39.694Z,102263.84
2023-02-11T13:24:15.241Z,102290.59
2023-02-11T13:26:48.451Z,102295.78
2023-02-11T13:29:26.592Z,102290.59
2023-02-11T13:31:56.015Z,102291.53
2023-02-11T13:34:29.173Z,102319.22
2023-02-11T13:36:57.168Z,102316.53
2023-02-11T13:39:25.873Z,102351.16
2023-02-11T13:42:03.599Z,102310.44
2023-02-11T13:44:35.274Z,102310.47
2023-02-11T13:47:05.754Z,102307.13
2023-02-11T13:49:40.721Z,102310.47
2023-02-11T13:52:22.019Z,102333.03
2023-02-11T13:54:51.919Z,102343.47
2023-02-11T13:57:29.203Z,102335.59
2023-02-11T14:00:00.361Z,102352.19
2023-02-11T14:02:48.953Z,102367.66
2023-02-11T14:05:51.114Z,102349.47
2023-02-11T14:08:39.498Z,102361.69
2023-02-11T14:11:14.769Z,102365.97
2023-02-11T14:14:19.427Z,102377.34
2023-02-11T14:17:19.884Z,102371.22
2023-02-11T14:19:49.527Z,102372.97
2023-02-11T14:22:19.776Z,102384.22
2023-02-11T14:24:53.620Z,102366.94
2023-02-11T14:27:51.469Z,102364.34
2023-02-11T14:30:31.559Z,102375.66
2023-02-11T14:33:20.646Z,102367.84
2023-02-11T14:35:57.972Z,102387.78
2023-02-11T14:38:34.094Z,102398.09
2023-02-11T14:41:08.161Z,102404.22
2023-02-11T14:43:37.528Z,102405.06
2023-02-11T14:46:06.172Z,102406.78
2023-02-11T14:48:36.398Z,102417.84
2023-02-11T14:51:07.560Z,102396.97
2023-02-11T14:53:36.208Z,102403.06
2023-02-11T14:56:04.153Z,102410.81
2023-02-11T14:58:32.914Z,102421.91
2023-02-11T15:01:03.490Z,102427.13
2023-02-11T15:03:35.951Z,102421.00
2023-02-11T15:06:07.323Z,102431.41
2023-02-11T15:08:38.269Z,102439.16
2023-02-11T15:11:12.157Z,102425.22
2023-02-11T15:13:48.032Z,102436.44
2023-02-11T15:16:19.539Z,102427.69
2023-02-11T15:18:53.093Z,102426.88
2023-02-11T15:21:22.381Z,102424.25
2023-02-11T15:23:57.085Z,102416.44
2023-02-11T15:26:25.083Z,102419.91
2023-02-11T15:28:53.347Z,102434.59
2023-02-11T15:31:24.355Z,102423.25
2023-02-11T15:33:54.283Z,102427.56
2023-02-11T15:36:28.609Z,102432.72
2023-02-11T15:39:31.417Z,102439.63
2023-02-11T15:42:17.402Z,102445.63
2023-02-11T15:44:45.439Z,102448.16
2023-02-11T15:47:14.372Z,102459.41
2023-02-11T15:49:46.935Z,102446.38
2023-02-11T15:52:15.585Z,102446.31
2023-02-11T15:54:46.670Z,102465.22
2023-02-11T15:57:15.079Z,102447.06
2023-02-11T15:59:47.688Z,102447.81
2023-02-11T16:02:19.554Z,102454.63
2023-02-11T16:04:53.524Z,102463.19
2023-02-11T16:07:44.640Z,102467.38
2023-02-11T16:10:21.418Z,102494.06
2023-02-11T16:13:03.147Z,102477.69
2023-02-11T16:15:49.689Z,102477.53
2023-02-11T16:18:37.380Z,102476.56
2023-02-11T16:21:12.959Z,102486.03
2023-02-11T16:23:43.077Z,102490.25
2023-02-11T16:26:21.216Z,102497.03
2023-02-11T16:28:49.466Z,102502.22
2023-02-11T16:31:17.524Z,102505.50
2023-02-11T16:33:45.565Z,102499.28
2023-02-11T16:36:17.265Z,102524.28
2023-02-11T16:38:45.120Z,102502.59
2023-02-11T16:41:12.935Z,102505.16
2023-02-11T16:43:41.018Z,102505.91
2023-02-11T16:46:09.424Z,102518.69
2023-02-11T16:48:37.309Z,102516.94
2023-02-11T16:51:05.376Z,102505.50
2023-02-11T16:53:34.667Z,102522.56
2023-02-11T16:56:02.494Z,102519.16
2023-02-11T16:58:30.373Z,102526.13
2023-02-11T17:00:58.455Z,102521.69
2023-02-11T17:03:30.079Z,102530.19
2023-02-11T17:05:58.500Z,102543.13
2023-02-11T17:08:26.385Z,102536.13
2023-02-11T17:10:55.699Z,102535.25
2023-02-11T17:13:23.677Z,102537.78
2023-02-11T17:15:51.880Z,102551.59
2023-02-11T17:18:19.961Z,102550.63
2023-02-11T17:20:48.187Z,102547.22
2023-02-11T17:23:16.057Z,102554.22
2023-02-11T17:25:44.001Z,102546.28
2023-02-11T17:28:13.302Z,102547.25
2023-02-11T17:30:43.616Z,102561.13
2023-02-11T17:33:11.558Z,102578.22
2023-02-11T17:35:40.986Z,102567.94
2023-02-11T17:38:08.951Z,102574.91
2023-02-11T17:40:36.827Z,102579.78
2023-02-11T17:43:04.931Z,102590.16
2023-02-11T17:45:34.267Z,102603.03
2023-02-11T17:48:02.182Z,102601.22
2023-02-11T17:50:30.129Z,102595.06
2023-02-11T17:52:58.102Z,102604.50
2023-02-11T17:55:25.999Z,102597.50
2023-02-11T17:57:53.890Z,102596.75
2023-02-11T18:00:23.318Z,102611.47
2023-02-11T18:02:52.623Z,102618.41
2023-02-11T18:05:20.549Z,102625.31
2023-02-11T18:07:48.847Z,102628.88
2023-02-11T18:10:16.748Z,102653.09
2023-02-11T18:12:44.851Z,102633.28
2023-02-11T18:15:13.282Z,102642.88
2023-02-11T18:17:41.206Z,102642.16
2023-02-11T18:20:11.703Z,102665.38
2023-02-11T18:22:40.944Z,102667.22
2023-02-11T18:25:09.883Z,102671.63
2023-02-11T18:27:37.776Z,102676.72
2023-02-11T18:30:07.363Z,102696.44
2023-02-11T18:32:35.474Z,102691.25
2023-02-11T18:35:03.646Z,102681.88
2023-02-11T18:37:33.115Z,102682.00
2023-02-11T18:40:01.179Z,102674.34
2023-02-11T18:42:29.167Z,102674.53
2023-02-11T18:44:57.168Z,102682.94
2023-02-11T18:47:25.346Z,102667.56
2023-02-11T18:49:53.348Z,102671.94
2023-02-11T18:52:21.386Z,102690.13
2023-02-11T18:54:51.944Z,102690.19
2023-02-11T18:57:19.972Z,102697.00
2023-02-11T18:59:50.156Z,102702.19
2023-02-11T19:02:18.470Z,102713.97
2023-02-11T19:04:46.500Z,102714.97
2023-02-11T19:07:14.549Z,102718.16
2023-02-11T19:09:42.788Z,102716.59
2023-02-11T19:12:12.280Z,102709.59
2023-02-11T19:14:40.269Z,102721.69
2023-02-11T19:17:10.813Z,102721.50
2023-02-11T19:19:38.957Z,102725.09
2023-02-11T19:22:10.300Z,102714.00
2023-02-11T19:24:39.165Z,102713.03
2023-02-11T19:27:07.150Z,102715.50
2023-02-11T19:29:36.614Z,102718.16
2023-02-11T19:32:05.860Z,102719.88
2023-02-11T19:34:34.165Z,102718.13
2023-02-11T19:37:02.167Z,102726.03
2023-02-11T19:39:30.199Z,102721.63
2023-02-11T19:41:58.162Z,102731.09
2023-02-11T19:44:26.118Z,102737.28
2023-02-11T19:46:55.457Z,102741.34
2023-02-11T19:49:25.916Z,102742.13
2023-02-11T19:51:55.398Z,102751.84
2023-02-11T19:54:23.469Z,102743.88
2023-02-11T19:56:51.398Z,102748.03
2023-02-11T19:59:19.672Z,102753.31
2023-02-11T20:01:49.156Z,102760.31
2023-02-11T20:04:18.903Z,102757.69
2023-02-11T20:06:48.122Z,102762.78
2023-02-11T20:09:16.575Z,102759.16
2023-02-11T20:11:44.700Z,102761.69
2023-02-11T20:14:14.828Z,102762.53
2023-02-11T20:16:49.117Z,102764.38
2023-02-11T20:19:21.801Z,102760.78
2023-02-11T20:21:52.619Z,102760.88
2023-02-11T20:24:21.341Z,102758.00
2023-02-11T20:26:49.849Z,102767.56
2023-02-11T20:29:18.809Z,102776.34
2023-02-11T20:31:47.040Z,102782.19
2023-02-11T20:34:17.541Z,102790.97
2023-02-11T20:36:51.955Z,102792.47
2023-02-11T20:39:22.015Z,102808.09
2023-02-11T20:41:50.394Z,102813.09
2023-02-11T20:44:18.873Z,102809.53
2023-02-11T20:46:47.224Z,102812.09
2023-02-11T20:49:16.239Z,102801.72
2023-02-11T20:51:44.259Z,102819.00
2023-02-11T20:54:14.578Z,102810.47
2023-02-11T20:56:42.842Z,102825.91
2023-02-11T20:59:11.696Z,102820.59
2023-02-11T21:01:41.251Z,102825.75
2023-02-11T21:04:12.657Z,102829.22
2023-02-11T21:06:42.185Z,102829.88
2023-02-11T21:09:12.353Z,102836.75
2023-02-11T21:11:41.995Z,102838.56
2023-02-11T21:14:11.127Z,102847.31
2023-02-11T21:16:39.492Z,102847.16
2023-02-11T21:19:08.061Z,102851.22
2023-02-11T21:21:36.865Z,102840.38
2023-02-11T21:24:05.318Z,102854.78
2023-02-11T21:26:33.562Z,102870.13
2023-02-11T21:29:02.835Z,102870.06
2023-02-11T21:31:33.006Z,102861.72
2023-02-11T21:34:01.295Z,102858.09
2023-02-11T21:36:30.217Z,102870.19
2023-02-11T21:38:58.228Z,102868.31
2023-02-11T21:41:27.435Z,102886.19
2023-02-11T21:43:55.445Z,102873.16
2023-02-11T21:46:24.914Z,102886.94
2023-02-11T21:48:53.054Z,102892.31
2023-02-11T21:51:22.430Z,102890.50
2023-02-11T21:53:54.442Z,102897.94
2023-02-11T21:56:22.461Z,102898.75
2023-02-11T21:58:54.108Z,102897.44
2023-02-11T22:01:24.893Z,102898.38
2023-02-11T22:03:53.693Z,102894.91
2023-02-11T22:06:23.717Z,102903.69
2023-02-11T22:08:51.785Z,102902.94
2023-02-11T22:11:20.261Z,102910.63
2023-02-11T22:13:48.372Z,102913.59
2023-02-11T22:16:17.501Z,102926.44
2023-02-11T22:18:46.983Z,102923.19
2023-02-11T22:21:17.554Z,102922.38
2023-02-11T22:23:45.666Z,102915.91
2023-02-11T22:26:15.434Z,102917.47
2023-02-11T22:28:43.998Z,102917.38
2023-02-11T22:31:13.399Z,102919.63
2023-02-11T22:33:41.881Z,102928.06
2023-02-11T22:36:15.535Z,102917.84
2023-02-11T22:38:43.491Z,102927.25
2023-02-11T22:41:12.720Z,102923.75
2023-02-11T22:43:42.435Z,102934.19
2023-02-11T22:46:16.097Z,102933.22
2023-02-11T22:48:44.117Z,102943.63
2023-02-11T22:51:16.248Z,102948.03
2023-02-11T22:53:44.703Z,102941.28
2023-02-11T22:56:15.789Z,102947.34
2023-02-11T22:58:43.895Z,102953.00
2023-02-11T23:01:12.790Z,102953.09
2023-02-11T23:03:41.133Z,102952.22
2023-02-11T23:06:09.296Z,102948.84
2023-02-11T23:08:39.255Z,102956.41
2023-02-11T23:11:09.841Z,102955.66
2023-02-11T23:13:39.283Z,102966.06
2023-02-11T23:16:08.710Z,102965.22
2023-02-11T23:18:37.683Z,102962.81
2023-02-11T23:21:09.576Z,102970.22
2023-02-11T23:23:41.021Z,102965.94
2023-02-11T23:26:10.931Z,102967.44
2023-02-11T23:28:38.964Z,102954.53
2023-02-11T23:31:15.041Z,102961.59
2023-02-11T23:33:43.159Z,102966.81
2023-02-11T23:36:11.431Z,102949.56
2023-02-11T23:38:40.876Z,102950.59
2023-02-11T23:41:08.889Z,102960.94
2023-02-11T23:43:37.040Z,102956.53
2023-02-11T23:46:05.458Z,102955.00
2023-02-11T23:48:33.880Z,102956.84
2023-02-11T23:51:01.845Z,102951.69
2023-02-11T23:53:29.899Z,102949.28
2023-02-11T23:55:59.304Z,102948.16
2023-02-11T23:58:27.297Z,102943.09
